Time;durP1;ratioP1;P1;durP2;ratioP2;P2;SDS_P1;SDS_P2;PMS_P1;PMS_P2;Temp;Humidity;BMP_temperature;BMP_pressure;BME280_temperature;BME280_humidity;BME280_pressure;Samples;Min_cycle;Max_cycle;Signal;HPM_P1;HPM_P2
2023/01/11 00:01:24;;;;;;;3.17;1.50;;;12.70;56.20;;;;;;5094032;28;20458;-72
2023/01/11 00:03:52;;;;;;;1.97;1.20;;;12.70;56.70;;;;;;5087615;28;21001;-72
2023/01/11 00:06:19;;;;;;;1.50;1.20;;;12.70;57.10;;;;;;5073273;28;20458;-72
2023/01/11 00:08:46;;;;;;;1.47;1.37;;;12.80;56.90;;;;;;5078275;28;21006;-71
2023/01/11 00:11:15;;;;;;;1.53;1.00;;;12.70;56.70;;;;;;5087812;28;20446;-72
2023/01/11 00:13:43;;;;;;;1.73;1.10;;;12.70;56.70;;;;;;5089511;28;20866;-72
2023/01/11 00:16:11;;;;;;;1.87;1.33;;;12.80;57.00;;;;;;5073183;28;20447;-72
2023/01/11 00:18:39;;;;;;;2.37;1.70;;;12.80;56.80;;;;;;5078151;28;20447;-72
2023/01/11 00:21:08;;;;;;;1.47;1.33;;;12.90;56.60;;;;;;5092901;28;20450;-71
2023/01/11 00:23:39;;;;;;;2.73;1.30;;;12.90;56.70;;;;;;5076095;28;20440;-72
2023/01/11 00:26:07;;;;;;;1.20;1.10;;;12.90;56.60;;;;;;5086649;28;20470;-72
2023/01/11 00:28:34;;;;;;;2.27;1.37;;;12.90;56.70;;;;;;5078477;28;20455;-72
2023/01/11 00:31:01;;;;;;;2.83;1.13;;;13.00;56.80;;;;;;5087296;28;20466;-72
2023/01/11 00:33:28;;;;;;;1.90;1.13;;;13.00;56.90;;;;;;5078558;28;20446;-72
2023/01/11 00:35:55;;;;;;;1.87;1.07;;;13.00;56.90;;;;;;5081387;28;20442;-72
2023/01/11 00:49:18;;;;;;;1.00;1.00;;;13.10;57.50;;;;;;5080730;28;20426;-73
2023/01/11 00:51:44;;;;;;;1.90;1.30;;;13.20;57.60;;;;;;5088283;28;20479;-72
2023/01/11 00:54:13;;;;;;;1.57;1.23;;;13.10;57.60;;;;;;5072407;28;20483;-72
2023/01/11 00:56:40;;;;;;;1.37;1.13;;;13.10;57.80;;;;;;5074134;28;20458;-72
2023/01/11 00:59:07;;;;;;;2.70;1.30;;;13.20;57.90;;;;;;5091485;28;20574;-72
2023/01/11 01:01:34;;;;;;;2.37;1.10;;;13.20;58.00;;;;;;5093291;28;20455;-71
2023/01/11 01:04:01;;;;;;;4.17;1.20;;;13.20;58.10;;;;;;5093153;28;20443;-71
2023/01/11 01:06:28;;;;;;;3.80;1.20;;;13.30;58.20;;;;;;5093220;28;20800;-72
2023/01/11 01:08:56;;;;;;;3.03;1.40;;;13.20;58.10;;;;;;5082183;28;20447;-72
2023/01/11 01:11:24;;;;;;;2.23;1.27;;;13.20;58.40;;;;;;5088722;28;20533;-72
2023/01/11 01:16:36;;;;;;;1.10;1.00;;;13.30;58.50;;;;;;5091500;28;20434;-73
2023/01/11 01:19:03;;;;;;;1.23;1.13;;;13.30;58.80;;;;;;5080697;28;20487;-71
2023/01/11 01:21:30;;;;;;;2.03;1.10;;;13.30;59.50;;;;;;5074452;28;20457;-72
2023/01/11 01:23:57;;;;;;;2.80;1.10;;;13.30;59.10;;;;;;5092690;28;21091;-72
2023/01/11 01:26:25;;;;;;;2.13;1.20;;;13.30;59.20;;;;;;5091421;28;20444;-72
2023/01/11 01:28:52;;;;;;;1.60;1.10;;;13.30;59.40;;;;;;5082556;28;20542;-72
2023/01/11 01:31:19;;;;;;;2.00;1.07;;;13.30;59.60;;;;;;5071665;28;20462;-72
2023/01/11 01:33:45;;;;;;;0.93;0.90;;;13.30;59.70;;;;;;5074235;28;20465;-72
2023/01/11 01:36:12;;;;;;;1.57;1.23;;;13.30;59.80;;;;;;5078001;28;20451;-72
2023/01/11 01:38:39;;;;;;;2.20;1.30;;;13.40;60.00;;;;;;5092406;28;20449;-72
2023/01/11 01:41:06;;;;;;;1.50;1.10;;;13.40;59.80;;;;;;5089641;28;20454;-72
2023/01/11 01:43:50;;;;;;;1.40;0.90;;;13.40;59.90;;;;;;5092055;28;20453;-72
2023/01/11 01:46:18;;;;;;;2.43;1.13;;;13.40;59.90;;;;;;5080933;28;20442;-72
2023/01/11 01:48:50;;;;;;;1.00;0.80;;;13.50;60.00;;;;;;5092347;28;20868;-72
2023/01/11 01:51:21;;;;;;;1.67;1.07;;;13.30;60.20;;;;;;5079067;28;20485;-72
2023/01/11 01:53:50;;;;;;;1.93;0.90;;;13.30;60.50;;;;;;5072201;28;20432;-72
2023/01/11 01:56:23;;;;;;;1.43;0.90;;;13.30;61.10;;;;;;5088066;28;20783;-71
2023/01/11 01:58:58;;;;;;;1.10;1.00;;;13.20;61.50;;;;;;5099807;28;20470;-71
2023/01/11 02:04:15;;;;;;;1.50;1.10;;;13.10;62.70;;;;;;5071484;28;20875;-72
2023/01/11 02:06:42;;;;;;;1.70;1.00;;;13.20;62.80;;;;;;5076327;28;20439;-72
2023/01/11 02:09:22;;;;;;;1.23;1.03;;;13.20;62.70;;;;;;5071591;28;20447;-72
2023/01/11 02:11:49;;;;;;;2.13;0.90;;;13.30;62.90;;;;;;5072725;28;20474;-72
2023/01/11 02:14:20;;;;;;;1.60;0.93;;;13.30;62.90;;;;;;5071208;28;20483;-72
2023/01/11 02:16:47;;;;;;;1.00;0.83;;;13.20;63.20;;;;;;5072436;28;20793;-72
2023/01/11 02:19:34;;;;;;;1.50;0.90;;;13.30;63.70;;;;;;5070307;28;20462;-72
2023/01/11 02:22:31;;;;;;;1.27;1.00;;;13.30;64.30;;;;;;5087987;28;20443;-72
2023/01/11 02:25:21;;;;;;;1.33;1.03;;;13.30;65.00;;;;;;5074895;28;20450;-72
2023/01/11 02:27:59;;;;;;;2.73;1.10;;;13.20;65.40;;;;;;5071955;28;20450;-72
2023/01/11 02:30:36;;;;;;;1.33;1.00;;;13.30;65.50;;;;;;5071089;28;20936;-71
2023/01/11 02:33:17;;;;;;;2.53;0.90;;;13.30;65.80;;;;;;5071860;28;20434;-72
2023/01/11 02:35:51;;;;;;;1.03;0.90;;;13.30;66.10;;;;;;5084093;28;20474;-72
2023/01/11 02:38:29;;;;;;;1.40;1.00;;;13.40;66.40;;;;;;5091264;28;20449;-72
2023/01/11 02:41:09;;;;;;;4.03;0.90;;;13.40;67.80;;;;;;5044882;28;20442;-71
2023/01/11 02:46:40;;;;;;;1.20;1.00;;;13.30;68.00;;;;;;5092412;28;20565;-72
2023/01/11 02:49:16;;;;;;;2.10;1.00;;;13.30;68.30;;;;;;5075316;28;20434;-72
2023/01/11 02:51:50;;;;;;;2.20;0.87;;;13.40;68.40;;;;;;5081440;28;20485;-72
2023/01/11 02:54:21;;;;;;;1.70;1.10;;;13.40;68.30;;;;;;5074258;28;21167;-72
2023/01/11 02:56:51;;;;;;;1.43;0.70;;;13.40;68.60;;;;;;5078689;28;20435;-72
2023/01/11 02:59:27;;;;;;;2.10;1.20;;;13.30;69.10;;;;;;5107011;28;20462;-71
2023/01/11 03:02:01;;;;;;;1.10;1.00;;;13.30;69.60;;;;;;5094892;28;20469;-72
2023/01/11 03:04:34;;;;;;;1.60;1.20;;;13.30;70.30;;;;;;5093152;28;20447;-71
2023/01/11 03:07:27;;;;;;;2.30;1.00;;;13.30;70.50;;;;;;5093306;28;20502;-72
2023/01/11 03:10:05;;;;;;;1.20;1.10;;;13.30;72.00;;;;;;5094723;28;20442;-71
2023/01/11 03:12:53;;;;;;;1.07;0.83;;;13.30;71.70;;;;;;5095089;28;20779;-72
2023/01/11 03:16:16;;;;;;;1.73;1.10;;;13.30;72.00;;;;;;5094220;28;21040;-72
2023/01/11 03:18:52;;;;;;;1.60;1.30;;;13.30;72.50;;;;;;4977380;28;20936;-72
2023/01/11 03:21:49;;;;;;;1.23;1.13;;;13.30;72.10;;;;;;4983508;28;20451;-72
2023/01/11 03:24:31;;;;;;;1.97;1.00;;;13.40;72.50;;;;;;5064941;28;20453;-72
2023/01/11 03:27:11;;;;;;;1.63;0.80;;;13.30;72.60;;;;;;5095366;28;20418;-72
2023/01/11 03:29:46;;;;;;;0.70;0.70;;;13.30;72.80;;;;;;5089367;28;20435;-72
2023/01/11 03:32:23;;;;;;;0.83;0.83;;;13.30;72.50;;;;;;5090979;28;20446;-72
2023/01/11 03:35:04;;;;;;;2.57;0.93;;;13.30;72.80;;;;;;5094910;28;20791;-72
2023/01/11 03:37:35;;;;;;;1.37;1.20;;;13.30;72.90;;;;;;5093383;28;20434;-72
2023/01/11 03:40:08;;;;;;;1.27;0.90;;;13.40;72.60;;;;;;5083005;28;20444;-72
2023/01/11 03:43:09;;;;;;;2.73;1.07;;;13.40;72.70;;;;;;5075732;28;20773;-72
2023/01/11 03:45:27;;;;;;;1.10;1.00;;;13.40;72.70;;;;;;5073718;28;20916;-72
2023/01/11 03:47:57;;;;;;;1.07;1.00;;;13.40;72.70;;;;;;5074523;28;20538;-72
2023/01/11 03:50:28;;;;;;;0.93;0.87;;;13.40;72.70;;;;;;5074389;28;20451;-71
2023/01/11 03:52:57;;;;;;;1.67;1.00;;;13.40;72.70;;;;;;5094178;28;20486;-72
2023/01/11 03:55:28;;;;;;;1.00;0.80;;;13.40;72.70;;;;;;5092257;28;21001;-72
2023/01/11 03:57:57;;;;;;;1.33;0.90;;;13.40;72.60;;;;;;5105883;28;20873;-72
2023/01/11 04:00:26;;;;;;;0.67;0.63;;;13.40;72.90;;;;;;5112265;28;20441;-72
2023/01/11 04:02:54;;;;;;;1.53;0.93;;;13.40;72.90;;;;;;5094099;28;20454;-72
2023/01/11 04:05:21;;;;;;;0.70;0.70;;;13.50;72.70;;;;;;5090772;28;20449;-72
2023/01/11 04:07:48;;;;;;;1.10;0.93;;;13.50;72.70;;;;;;5076482;28;20448;-73
2023/01/11 04:10:18;;;;;;;0.83;0.80;;;13.50;72.70;;;;;;5093407;28;20521;-72
2023/01/11 04:12:47;;;;;;;1.57;1.10;;;13.60;72.80;;;;;;5073886;28;20456;-72
2023/01/11 04:15:14;;;;;;;0.87;0.80;;;13.50;72.70;;;;;;5073028;28;20498;-72
2023/01/11 04:17:41;;;;;;;1.70;0.90;;;13.50;72.60;;;;;;5073569;28;20550;-72
2023/01/11 04:20:11;;;;;;;1.87;1.03;;;13.50;72.70;;;;;;5074008;28;20459;-73
2023/01/11 04:22:38;;;;;;;0.87;0.70;;;13.60;72.70;;;;;;5075072;28;20451;-71
2023/01/11 04:25:07;;;;;;;0.80;0.80;;;13.60;72.60;;;;;;5073910;28;20439;-72
2023/01/11 04:27:34;;;;;;;1.67;1.10;;;13.50;73.20;;;;;;5072903;28;21248;-72
2023/01/11 04:30:01;;;;;;;1.47;0.80;;;13.50;73.30;;;;;;5076620;28;20446;-72
2023/01/11 04:32:28;;;;;;;0.90;0.90;;;13.60;73.20;;;;;;5079191;28;20462;-72
2023/01/11 04:34:54;;;;;;;1.60;0.80;;;13.70;72.90;;;;;;5074350;28;20489;-72
2023/01/11 04:37:23;;;;;;;0.57;0.57;;;13.70;72.70;;;;;;5084367;28;20792;-72
2023/01/11 04:39:49;;;;;;;1.00;0.77;;;13.80;72.90;;;;;;5073622;28;20443;-72
2023/01/11 04:42:18;;;;;;;1.33;0.70;;;13.70;72.90;;;;;;5080071;28;20456;-72
2023/01/11 04:44:49;;;;;;;1.70;0.80;;;13.70;72.90;;;;;;5073580;28;20494;-72
2023/01/11 04:47:21;;;;;;;0.80;0.80;;;13.90;72.70;;;;;;5074164;28;20803;-71
2023/01/11 04:49:48;;;;;;;1.23;0.90;;;14.00;72.40;;;;;;5072929;28;20444;-72
2023/01/11 04:52:16;;;;;;;0.87;0.77;;;13.90;72.30;;;;;;5086527;28;20996;-72
2023/01/11 04:54:44;;;;;;;2.37;0.83;;;13.90;72.60;;;;;;5083880;28;20448;-72
2023/01/11 04:57:13;;;;;;;2.53;0.73;;;13.90;72.50;;;;;;5090868;28;20449;-72
2023/01/11 04:59:40;;;;;;;0.70;0.70;;;13.90;72.60;;;;;;5113644;28;20469;-72
2023/01/11 05:02:07;;;;;;;1.77;1.00;;;14.00;72.60;;;;;;5098922;28;20490;-72
2023/01/11 05:04:34;;;;;;;0.77;0.70;;;14.00;72.20;;;;;;5092332;28;20805;-72
2023/01/11 05:07:01;;;;;;;0.83;0.80;;;14.10;72.10;;;;;;5090318;28;20498;-71
2023/01/11 05:09:28;;;;;;;0.67;0.67;;;14.10;71.90;;;;;;5093257;28;20450;-72
2023/01/11 05:11:59;;;;;;;0.77;0.70;;;14.10;71.60;;;;;;5063663;28;20469;-72
2023/01/11 05:14:26;;;;;;;1.00;0.60;;;14.00;72.10;;;;;;5087840;28;20447;-72
2023/01/11 05:16:53;;;;;;;0.80;0.80;;;14.10;72.20;;;;;;5082342;28;20487;-72
2023/01/11 05:19:20;;;;;;;0.70;0.70;;;14.10;72.80;;;;;;5083208;28;20947;-72
2023/01/11 05:21:46;;;;;;;1.20;1.10;;;14.20;71.70;;;;;;5082209;28;20454;-72
2023/01/11 05:24:15;;;;;;;1.43;0.70;;;14.20;71.60;;;;;;5072710;28;20447;-72
2023/01/11 05:26:44;;;;;;;0.73;0.73;;;14.20;71.40;;;;;;5062787;28;20869;-71
2023/01/11 05:29:15;;;;;;;1.03;0.87;;;14.30;71.50;;;;;;5091303;28;20450;-71
2023/01/11 05:31:43;;;;;;;0.70;0.70;;;14.30;71.30;;;;;;5083342;28;20462;-72
2023/01/11 05:34:11;;;;;;;1.00;0.60;;;14.30;71.20;;;;;;5095387;28;20473;-72
2023/01/11 05:36:39;;;;;;;0.60;0.60;;;14.30;71.30;;;;;;5087921;28;20507;-72
2023/01/11 05:39:07;;;;;;;0.87;0.67;;;14.30;71.30;;;;;;5093249;28;20783;-72
2023/01/11 05:41:34;;;;;;;0.60;0.60;;;14.30;72.10;;;;;;5084595;28;20462;-72
2023/01/11 05:46:47;;;;;;;2.07;0.77;;;14.30;71.40;;;;;;5078361;28;20569;-72
2023/01/11 05:49:14;;;;;;;0.60;0.60;;;14.30;71.20;;;;;;5071847;28;20566;-72
2023/01/11 05:51:42;;;;;;;0.93;0.70;;;14.30;71.20;;;;;;5072426;28;20556;-71
2023/01/11 05:54:12;;;;;;;1.77;1.67;;;14.20;71.30;;;;;;5073148;28;20460;-70
2023/01/11 05:56:39;;;;;;;0.70;0.70;;;14.30;71.10;;;;;;5078807;28;20474;-72
2023/01/11 05:59:05;;;;;;;0.43;0.43;;;14.40;71.10;;;;;;5107275;28;20463;-73
2023/01/11 06:01:32;;;;;;;0.67;0.67;;;14.40;71.00;;;;;;5091331;28;20898;-70
2023/01/11 06:04:01;;;;;;;0.70;0.70;;;14.40;70.70;;;;;;5080733;28;20457;-72
2023/01/11 06:06:28;;;;;;;0.70;0.70;;;14.40;70.70;;;;;;5076334;28;20442;-72
2023/01/11 06:08:55;;;;;;;0.50;0.50;;;14.40;70.80;;;;;;5091783;28;20446;-70
2023/01/11 06:11:22;;;;;;;0.43;0.43;;;14.30;71.00;;;;;;5087701;28;20453;-72
2023/01/11 06:13:49;;;;;;;1.10;1.00;;;14.30;71.10;;;;;;5083883;28;20453;-73
2023/01/11 06:16:17;;;;;;;1.10;1.00;;;14.30;71.10;;;;;;5088277;28;21149;-72
2023/01/11 06:18:46;;;;;;;1.17;0.70;;;14.30;70.80;;;;;;5072822;28;20451;-72
2023/01/11 06:21:15;;;;;;;0.60;0.60;;;14.30;71.10;;;;;;5076297;28;20539;-72
2023/01/11 06:23:44;;;;;;;0.50;0.50;;;14.30;70.80;;;;;;5075581;28;20448;-72
2023/01/11 06:26:12;;;;;;;0.50;0.50;;;14.30;71.00;;;;;;5094603;28;20443;-72
2023/01/11 06:28:40;;;;;;;1.00;0.70;;;14.20;71.00;;;;;;5095396;28;20449;-72
2023/01/11 06:31:07;;;;;;;0.47;0.47;;;14.30;71.00;;;;;;5095871;28;20450;-72
2023/01/11 06:33:35;;;;;;;0.70;0.50;;;14.30;70.70;;;;;;5082876;28;20455;-72
2023/01/11 06:36:04;;;;;;;0.70;0.70;;;14.40;70.50;;;;;;5086051;28;20474;-72
2023/01/11 06:38:32;;;;;;;0.80;0.53;;;14.30;70.60;;;;;;5074892;28;20451;-73
2023/01/11 06:41:01;;;;;;;1.13;0.77;;;14.30;70.50;;;;;;5075787;28;20447;-73
2023/01/11 06:43:30;;;;;;;0.47;0.47;;;14.40;70.70;;;;;;5083855;28;20546;-71
2023/01/11 06:45:57;;;;;;;0.80;0.70;;;14.40;70.70;;;;;;5086427;28;20530;-73
2023/01/11 06:48:25;;;;;;;0.67;0.67;;;14.40;70.40;;;;;;5078708;28;20490;-74
2023/01/11 06:50:54;;;;;;;0.40;0.40;;;14.50;70.30;;;;;;5076512;28;20459;-74
2023/01/11 06:53:21;;;;;;;1.57;0.80;;;14.50;70.00;;;;;;5075531;28;20978;-73
2023/01/11 06:55:51;;;;;;;0.60;0.60;;;14.60;70.10;;;;;;5075352;28;21034;-74
2023/01/11 06:58:18;;;;;;;1.10;0.50;;;14.50;69.90;;;;;;5101653;28;20467;-75
2023/01/11 07:00:45;;;;;;;0.60;0.60;;;14.60;70.00;;;;;;5090072;28;20481;-73
2023/01/11 07:03:12;;;;;;;0.70;0.70;;;14.60;69.60;;;;;;5088674;28;20482;-72
2023/01/11 07:05:41;;;;;;;0.60;0.60;;;14.60;69.50;;;;;;5100630;28;20453;-73
2023/01/11 07:08:08;;;;;;;0.80;0.80;;;14.70;69.70;;;;;;5111606;28;20445;-74
2023/01/11 07:10:35;;;;;;;0.57;0.53;;;14.70;69.50;;;;;;5107004;28;20534;-74
2023/01/11 07:13:03;;;;;;;0.40;0.40;;;14.70;69.50;;;;;;5105328;28;20537;-74
2023/01/11 07:15:30;;;;;;;0.50;0.50;;;14.60;69.50;;;;;;5109976;28;20454;-74
2023/01/11 07:17:59;;;;;;;2.27;0.80;;;14.70;69.70;;;;;;5109329;28;20472;-73
2023/01/11 07:20:27;;;;;;;0.40;0.40;;;14.70;69.30;;;;;;5096135;28;20835;-73
2023/01/11 07:22:58;;;;;;;0.80;0.80;;;14.70;69.30;;;;;;5112223;28;20442;-73
2023/01/11 07:25:26;;;;;;;1.73;0.73;;;14.70;69.30;;;;;;5112633;28;20449;-74
2023/01/11 07:27:57;;;;;;;0.40;0.40;;;14.80;69.30;;;;;;5095410;28;20449;-73
2023/01/11 07:30:26;;;;;;;0.40;0.40;;;14.80;69.00;;;;;;5093576;28;20484;-74
2023/01/11 07:32:53;;;;;;;0.60;0.60;;;14.80;68.80;;;;;;5094688;28;20449;-73
2023/01/11 07:35:20;;;;;;;0.87;0.60;;;14.80;68.90;;;;;;5094416;28;20468;-73
2023/01/11 07:37:47;;;;;;;0.50;0.50;;;14.80;69.10;;;;;;5094708;28;20531;-73
2023/01/11 07:40:15;;;;;;;0.47;0.47;;;14.80;69.10;;;;;;5095144;28;20870;-74
2023/01/11 07:45:34;;;;;;;1.07;0.90;;;14.80;68.90;;;;;;5074338;28;20419;-72
2023/01/11 07:48:04;;;;;;;0.87;0.60;;;14.80;68.80;;;;;;5074605;28;20455;-73
2023/01/11 07:50:31;;;;;;;0.50;0.50;;;14.80;68.90;;;;;;5074315;28;21016;-73
2023/01/11 07:52:58;;;;;;;0.50;0.50;;;14.90;68.90;;;;;;5073667;28;20483;-73
2023/01/11 07:55:25;;;;;;;0.43;0.37;;;15.00;68.80;;;;;;5074046;28;20863;-72
2023/01/11 07:57:55;;;;;;;0.60;0.60;;;15.00;68.70;;;;;;5084733;28;20485;-73
2023/01/11 08:00:23;;;;;;;1.53;0.60;;;15.00;68.70;;;;;;5087434;28;20826;-73
2023/01/11 08:02:52;;;;;;;0.63;0.63;;;15.00;68.50;;;;;;5073977;28;20483;-73
2023/01/11 08:05:19;;;;;;;0.77;0.73;;;15.00;69.10;;;;;;5074575;28;20452;-72
2023/01/11 08:07:46;;;;;;;0.70;0.70;;;15.00;68.70;;;;;;5073182;28;20452;-73
2023/01/11 08:10:13;;;;;;;0.83;0.80;;;15.00;68.70;;;;;;5074164;28;20482;-74
2023/01/11 08:15:27;;;;;;;1.00;0.90;;;15.10;68.70;;;;;;5058326;28;20799;-73
2023/01/11 08:17:56;;;;;;;0.60;0.60;;;14.90;69.00;;;;;;5074089;28;20487;-73
2023/01/11 08:20:23;;;;;;;0.83;0.70;;;14.90;69.30;;;;;;5073651;28;20516;-71
2023/01/11 08:22:50;;;;;;;1.07;0.97;;;14.90;69.40;;;;;;5076467;28;20444;-73
2023/01/11 08:25:17;;;;;;;1.17;0.87;;;15.00;69.30;;;;;;5093724;28;21114;-72
2023/01/11 08:27:44;;;;;;;0.70;0.70;;;15.00;69.20;;;;;;5093837;28;20866;-73
2023/01/11 08:30:12;;;;;;;0.77;0.77;;;14.90;69.30;;;;;;5093892;28;20447;-73
2023/01/11 08:32:39;;;;;;;0.70;0.70;;;15.00;69.50;;;;;;5093606;28;20442;-72
2023/01/11 08:35:08;;;;;;;0.97;0.90;;;15.00;69.50;;;;;;5085914;28;20818;-73
2023/01/11 08:37:35;;;;;;;0.90;0.67;;;15.00;69.50;;;;;;5072971;28;20486;-73
2023/01/11 08:40:02;;;;;;;1.90;1.80;;;15.00;69.40;;;;;;5073201;28;20440;-74
2023/01/11 08:42:28;;;;;;;1.50;0.93;;;15.00;69.60;;;;;;5072716;28;21015;-72
2023/01/11 08:44:55;;;;;;;0.93;0.93;;;15.00;69.80;;;;;;5092099;28;20481;-73
2023/01/11 08:47:22;;;;;;;1.23;0.93;;;15.00;69.70;;;;;;5093426;28;20525;-73
2023/01/11 08:49:50;;;;;;;0.70;0.70;;;15.00;69.90;;;;;;5093643;28;20914;-73
2023/01/11 08:52:19;;;;;;;0.50;0.50;;;15.10;70.10;;;;;;5093606;28;20542;-74
2023/01/11 08:54:45;;;;;;;0.93;0.70;;;15.10;70.40;;;;;;5074757;28;20451;-73
2023/01/11 08:57:12;;;;;;;1.07;0.90;;;15.10;70.60;;;;;;5083303;28;21060;-73
2023/01/11 08:59:39;;;;;;;0.80;0.80;;;15.10;70.70;;;;;;5113187;28;20465;-73
2023/01/11 09:02:06;;;;;;;0.80;0.67;;;15.10;70.80;;;;;;5113831;28;20883;-73
2023/01/11 09:04:33;;;;;;;0.87;0.60;;;15.10;71.00;;;;;;5111736;28;20450;-74
2023/01/11 09:07:01;;;;;;;0.80;0.70;;;15.10;71.60;;;;;;5093289;28;20443;-73
2023/01/11 09:09:29;;;;;;;0.80;0.63;;;15.10;72.00;;;;;;5057079;28;20447;-73
2023/01/11 09:11:59;;;;;;;0.70;0.70;;;15.10;72.70;;;;;;5093284;28;20442;-73
2023/01/11 09:14:27;;;;;;;0.50;0.50;;;15.00;73.10;;;;;;5092837;28;20460;-73
2023/01/11 09:16:55;;;;;;;0.53;0.53;;;15.00;74.00;;;;;;5090053;28;20489;-73
2023/01/11 09:19:22;;;;;;;0.70;0.70;;;15.00;74.50;;;;;;5073150;28;20534;-73
2023/01/11 09:21:50;;;;;;;0.60;0.60;;;15.00;75.20;;;;;;5072095;28;20451;-73
2023/01/11 09:24:17;;;;;;;0.60;0.60;;;15.00;75.70;;;;;;5072109;28;20451;-74
2023/01/11 09:26:45;;;;;;;0.70;0.70;;;15.00;76.30;;;;;;5089217;28;20443;-73
2023/01/11 09:29:12;;;;;;;0.60;0.60;;;15.00;77.00;;;;;;5092582;28;20541;-73
2023/01/11 09:31:39;;;;;;;0.50;0.50;;;14.90;77.60;;;;;;5092262;28;20450;-73
2023/01/11 09:34:09;;;;;;;1.47;1.37;;;14.80;78.20;;;;;;5092869;28;20829;-73
2023/01/11 09:36:38;;;;;;;1.10;1.10;;;14.80;79.10;;;;;;5075821;28;21054;-73
2023/01/11 09:39:08;;;;;;;1.77;0.90;;;14.70;80.20;;;;;;5072273;28;20512;-73
2023/01/11 09:41:52;;;;;;;1.80;0.80;;;14.60;81.10;;;;;;5071711;28;20451;-73
2023/01/11 09:44:24;;;;;;;0.67;0.67;;;14.60;82.00;;;;;;5072585;28;20518;-73
2023/01/11 09:46:54;;;;;;;1.10;0.80;;;14.60;82.10;;;;;;5072789;28;20431;-73
2023/01/11 09:49:29;;;;;;;0.80;0.80;;;14.50;82.50;;;;;;5033893;28;20505;-74
2023/01/11 09:52:06;;;;;;;0.53;0.53;;;14.60;82.90;;;;;;5072144;28;20540;-73
2023/01/11 09:54:33;;;;;;;1.37;0.63;;;14.60;83.20;;;;;;5070968;28;20892;-73
2023/01/11 09:57:17;;;;;;;0.60;0.60;;;14.50;83.10;;;;;;5079118;28;20457;-72
2023/01/11 09:59:51;;;;;;;0.70;0.70;;;14.50;83.90;;;;;;5103645;28;20528;-73
2023/01/11 10:02:32;;;;;;;1.37;0.77;;;14.50;83.70;;;;;;5092673;28;20456;-73
2023/01/11 10:05:24;;;;;;;0.53;0.53;;;14.60;83.80;;;;;;5092563;28;20956;-73
2023/01/11 10:08:04;;;;;;;2.83;0.90;;;14.60;84.10;;;;;;5088820;28;20478;-73
2023/01/11 10:10:46;;;;;;;1.50;0.97;;;14.50;83.90;;;;;;5056831;28;20658;-73
2023/01/11 10:13:25;;;;;;;0.87;0.87;;;14.50;84.00;;;;;;5074644;28;20439;-73
2023/01/11 10:15:59;;;;;;;1.83;0.73;;;14.50;84.30;;;;;;5072390;28;20476;-73
2023/01/11 10:18:50;;;;;;;0.60;0.60;;;14.50;84.10;;;;;;5072045;28;20554;-73
2023/01/11 10:21:25;;;;;;;0.70;0.70;;;14.50;84.40;;;;;;5071700;28;20919;-72
2023/01/11 10:24:00;;;;;;;1.77;1.07;;;14.40;84.40;;;;;;5075856;28;20861;-72
2023/01/11 10:26:34;;;;;;;1.07;1.00;;;14.40;84.70;;;;;;5043497;28;20450;-73
2023/01/11 10:29:21;;;;;;;1.90;0.97;;;14.40;84.70;;;;;;5092559;28;20456;-73
2023/01/11 10:32:09;;;;;;;0.80;0.80;;;14.40;85.00;;;;;;5091757;28;21324;-72
2023/01/11 10:34:58;;;;;;;0.60;0.60;;;14.40;85.20;;;;;;5091667;28;20427;-74
2023/01/11 10:37:45;;;;;;;0.70;0.70;;;14.50;84.80;;;;;;5091255;28;20477;-74
2023/01/11 10:40:33;;;;;;;0.83;0.83;;;14.60;84.90;;;;;;5092195;28;20818;-72
2023/01/11 10:43:06;;;;;;;1.60;1.00;;;14.60;84.70;;;;;;5092162;28;20437;-73
2023/01/11 10:45:40;;;;;;;0.70;0.70;;;14.60;84.50;;;;;;5091646;28;20462;-74
2023/01/11 10:48:16;;;;;;;1.03;0.80;;;14.60;84.70;;;;;;5089124;28;20439;-73
2023/01/11 10:50:50;;;;;;;0.90;0.70;;;14.60;84.10;;;;;;5070999;28;20761;-73
2023/01/11 10:53:22;;;;;;;2.00;0.87;;;14.60;84.10;;;;;;5071505;28;21191;-73
2023/01/11 10:55:57;;;;;;;0.97;0.87;;;14.60;84.10;;;;;;5071144;28;20470;-73
2023/01/11 10:58:36;;;;;;;3.30;1.50;;;14.50;84.40;;;;;;5101830;28;20485;-72
2023/01/11 11:01:15;;;;;;;1.73;1.03;;;14.40;85.10;;;;;;5101031;28;20548;-72
2023/01/11 11:04:06;;;;;;;1.30;0.90;;;14.30;85.50;;;;;;5091438;28;20440;-72
2023/01/11 11:06:41;;;;;;;1.83;0.90;;;14.40;85.40;;;;;;5095355;28;20521;-73
2023/01/11 11:09:18;;;;;;;1.07;0.97;;;14.60;85.20;;;;;;5095663;28;20427;-72
2023/01/11 11:11:52;;;;;;;1.13;1.07;;;14.60;84.80;;;;;;5095052;28;20426;-73
2023/01/11 11:14:25;;;;;;;1.20;1.10;;;14.60;84.50;;;;;;5079008;28;20434;-72
2023/01/11 11:17:03;;;;;;;1.47;1.10;;;14.70;84.40;;;;;;5074279;28;20491;-75
2023/01/11 11:19:32;;;;;;;1.57;1.40;;;14.70;84.40;;;;;;5074813;28;21146;-75
2023/01/11 11:22:00;;;;;;;1.20;1.10;;;14.70;84.20;;;;;;5075796;28;20447;-73
2023/01/11 11:24:32;;;;;;;4.17;1.70;;;14.60;84.50;;;;;;5079908;28;20537;-76
2023/01/11 11:27:03;;;;;;;2.30;1.90;;;14.60;85.10;;;;;;5095377;28;20427;-73
2023/01/11 11:29:30;;;;;;;1.80;1.30;;;14.40;85.60;;;;;;5095064;28;20517;-72
2023/01/11 11:32:00;;;;;;;1.97;1.30;;;14.40;85.70;;;;;;5094710;28;20454;-72
2023/01/11 11:34:29;;;;;;;2.27;1.67;;;14.40;85.80;;;;;;5094692;28;20454;-73
2023/01/11 11:36:59;;;;;;;1.73;1.53;;;14.30;85.80;;;;;;5086490;28;20483;-72
2023/01/11 11:39:28;;;;;;;1.83;1.20;;;14.40;86.20;;;;;;5074872;28;20797;-71
2023/01/11 11:41:57;;;;;;;0.97;0.97;;;14.30;86.20;;;;;;5084580;28;20457;-72
2023/01/11 11:44:26;;;;;;;1.23;1.20;;;14.20;86.90;;;;;;5094928;28;20456;-72
2023/01/11 11:47:02;;;;;;;1.57;1.47;;;14.20;86.90;;;;;;5093794;28;20926;-72
2023/01/11 11:49:30;;;;;;;1.73;1.50;;;14.30;87.00;;;;;;5093272;28;20450;-72
2023/01/11 11:51:59;;;;;;;1.27;1.00;;;14.40;87.10;;;;;;5094264;28;20506;-72
2023/01/11 11:54:29;;;;;;;1.37;1.10;;;14.40;86.80;;;;;;5094457;28;20443;-72
2023/01/11 11:56:59;;;;;;;2.23;1.43;;;14.40;87.10;;;;;;5096508;28;20545;-72
2023/01/11 11:59:32;;;;;;;1.77;1.20;;;14.40;86.70;;;;;;5114886;28;20466;-72
2023/01/11 12:02:04;;;;;;;1.40;1.30;;;14.50;86.60;;;;;;5097152;28;20454;-71
2023/01/11 12:04:42;;;;;;;1.53;1.10;;;14.50;86.60;;;;;;5093582;28;20538;-72
2023/01/11 12:07:14;;;;;;;1.60;1.20;;;14.60;86.60;;;;;;5093582;28;20430;-72
2023/01/11 12:09:46;;;;;;;1.40;1.10;;;14.50;86.60;;;;;;5093657;28;20430;-72
2023/01/11 12:12:18;;;;;;;1.33;1.20;;;14.50;86.80;;;;;;5094363;28;20828;-71
2023/01/11 12:15:17;;;;;;;1.80;1.70;;;14.40;86.90;;;;;;5073235;28;20542;-72
2023/01/11 12:17:46;;;;;;;1.40;1.30;;;14.30;87.70;;;;;;5072042;28;21003;-72
2023/01/11 12:20:30;;;;;;;1.80;1.50;;;14.20;87.80;;;;;;5073932;28;20534;-72
2023/01/11 12:23:16;;;;;;;1.93;1.30;;;14.20;88.80;;;;;;5073121;28;20528;-72
2023/01/11 12:26:04;;;;;;;3.07;1.50;;;14.20;88.80;;;;;;5086305;28;20453;-72
2023/01/11 12:28:55;;;;;;;3.13;2.30;;;14.30;88.70;;;;;;5094095;28;20427;-72
2023/01/11 12:31:31;;;;;;;3.20;2.40;;;14.40;88.30;;;;;;5090539;28;20541;-72
2023/01/11 12:34:09;;;;;;;2.00;1.80;;;14.40;88.00;;;;;;5093227;28;20524;-72
2023/01/11 12:36:44;;;;;;;1.07;1.07;;;14.40;88.00;;;;;;5088231;28;20451;-71
2023/01/11 12:39:19;;;;;;;2.13;1.43;;;14.40;88.00;;;;;;5073227;28;20577;-73
2023/01/11 12:42:08;;;;;;;2.27;1.40;;;14.30;88.90;;;;;;5072746;28;20438;-71
2023/01/11 12:44:49;;;;;;;2.20;1.40;;;14.20;89.70;;;;;;5073016;28;20510;-71
2023/01/11 12:47:39;;;;;;;1.80;1.20;;;14.30;89.50;;;;;;5073154;28;20505;-72
2023/01/11 12:50:13;;;;;;;1.60;1.50;;;14.20;90.00;;;;;;5088429;28;20537;-72
2023/01/11 12:52:59;;;;;;;1.27;1.17;;;14.20;90.10;;;;;;5092935;28;20478;-72
2023/01/11 12:55:37;;;;;;;1.40;1.30;;;14.10;90.10;;;;;;5093596;28;20430;-72
2023/01/11 12:58:14;;;;;;;3.57;3.27;;;14.10;90.00;;;;;;5105817;28;20486;-70
2023/01/11 13:01:08;;;;;;;3.17;2.87;;;14.20;90.00;;;;;;5108437;28;20458;-72
2023/01/11 13:04:02;;;;;;;1.67;1.57;;;14.10;89.90;;;;;;5093500;28;20465;-72
2023/01/11 13:06:36;;;;;;;1.50;1.40;;;14.20;90.20;;;;;;5089491;28;20454;-71
2023/01/11 13:09:08;;;;;;;1.10;1.00;;;14.10;90.00;;;;;;5093652;28;20427;-71
2023/01/11 13:11:47;;;;;;;0.77;0.77;;;14.10;89.90;;;;;;5093125;28;20882;-72
2023/01/11 13:14:32;;;;;;;1.40;1.30;;;14.00;90.10;;;;;;5092562;28;20780;-72
2023/01/11 13:17:09;;;;;;;0.70;0.70;;;14.00;90.20;;;;;;5092774;28;20522;-72
2023/01/11 13:19:43;;;;;;;1.30;1.20;;;14.10;90.10;;;;;;5092791;28;20427;-71
2023/01/11 13:22:17;;;;;;;1.50;1.40;;;14.10;90.00;;;;;;5093516;28;20513;-71
2023/01/11 13:24:47;;;;;;;1.57;1.47;;;14.20;90.00;;;;;;5089112;28;20534;-72
2023/01/11 13:27:19;;;;;;;2.70;1.90;;;14.20;90.10;;;;;;5072821;28;20932;-72
2023/01/11 13:29:49;;;;;;;1.90;1.57;;;14.20;90.10;;;;;;5070626;28;20438;-72
2023/01/11 13:32:20;;;;;;;1.67;1.57;;;14.20;90.10;;;;;;5072096;28;21005;-72
2023/01/11 13:34:51;;;;;;;1.60;1.43;;;14.30;90.10;;;;;;5071763;28;20898;-71
2023/01/11 13:37:27;;;;;;;1.83;1.40;;;14.20;90.10;;;;;;5060231;28;20445;-71
2023/01/11 13:40:01;;;;;;;1.93;1.50;;;14.20;90.30;;;;;;5091725;28;20525;-72